sensor_id;sensor_type;location;lat;lon;timestamp;P1;durP1;ratioP1;P2;durP2;ratioP2
23232;SDS011;11785;49.500;8.288;2023-04-09T00:02:22;7.82;;;5.65;;
23232;SDS011;11785;49.500;8.288;2023-04-09T00:04:49;10.07;;;5.70;;
23232;SDS011;11785;49.500;8.288;2023-04-09T00:07:14;8.63;;;6.13;;
23232;SDS011;11785;49.500;8.288;2023-04-09T00:09:40;11.02;;;6.53;;
23232;SDS011;11785;49.500;8.288;2023-04-09T00:12:05;12.35;;;7.78;;
23232;SDS011;11785;49.500;8.288;2023-04-09T00:14:31;10.48;;;7.00;;
23232;SDS011;11785;49.500;8.288;2023-04-09T00:16:56;8.40;;;6.45;;
23232;SDS011;11785;49.500;8.288;2023-04-09T00:19:22;12.13;;;6.43;;
23232;SDS011;11785;49.500;8.288;2023-04-09T00:21:48;9.00;;;6.35;;
23232;SDS011;11785;49.500;8.288;2023-04-09T00:24:14;8.15;;;5.95;;
23232;SDS011;11785;49.500;8.288;2023-04-09T00:26:39;9.18;;;5.80;;
23232;SDS011;11785;49.500;8.288;2023-04-09T00:29:05;9.23;;;6.75;;
23232;SDS011;11785;49.500;8.288;2023-04-09T00:31:30;7.55;;;5.07;;
23232;SDS011;11785;49.500;8.288;2023-04-09T00:33:57;8.57;;;6.18;;
23232;SDS011;11785;49.500;8.288;2023-04-09T00:36:22;11.50;;;6.30;;
23232;SDS011;11785;49.500;8.288;2023-04-09T00:38:49;9.95;;;6.55;;
23232;SDS011;11785;49.500;8.288;2023-04-09T00:41:16;10.35;;;6.68;;
23232;SDS011;11785;49.500;8.288;2023-04-09T00:43:42;8.60;;;6.25;;
23232;SDS011;11785;49.500;8.288;2023-04-09T00:46:07;8.90;;;6.00;;
23232;SDS011;11785;49.500;8.288;2023-04-09T00:48:33;9.32;;;6.43;;
23232;SDS011;11785;49.500;8.288;2023-04-09T00:50:59;12.00;;;6.60;;
23232;SDS011;11785;49.500;8.288;2023-04-09T00:53:25;8.88;;;6.47;;
23232;SDS011;11785;49.500;8.288;2023-04-09T00:55:51;9.27;;;6.28;;
23232;SDS011;11785;49.500;8.288;2023-04-09T00:58:17;9.77;;;6.53;;
23232;SDS011;11785;49.500;8.288;2023-04-09T01:00:42;9.90;;;6.57;;
23232;SDS011;11785;49.500;8.288;2023-04-09T01:03:08;11.38;;;6.93;;
23232;SDS011;11785;49.500;8.288;2023-04-09T01:05:40;11.00;;;7.00;;
23232;SDS011;11785;49.500;8.288;2023-04-09T01:08:18;11.57;;;6.70;;
23232;SDS011;11785;49.500;8.288;2023-04-09T01:13:38;9.85;;;6.15;;
23232;SDS011;11785;49.500;8.288;2023-04-09T01:16:13;10.85;;;6.78;;
23232;SDS011;11785;49.500;8.288;2023-04-09T01:18:42;10.55;;;6.03;;
23232;SDS011;11785;49.500;8.288;2023-04-09T01:29:19;7.95;;;5.90;;
23232;SDS011;11785;49.500;8.288;2023-04-09T01:31:46;10.52;;;6.78;;
23232;SDS011;11785;49.500;8.288;2023-04-09T01:34:14;13.02;;;7.45;;
23232;SDS011;11785;49.500;8.288;2023-04-09T01:36:40;12.05;;;6.45;;
23232;SDS011;11785;49.500;8.288;2023-04-09T01:39:13;11.90;;;7.47;;
23232;SDS011;11785;49.500;8.288;2023-04-09T01:41:39;10.55;;;6.85;;
23232;SDS011;11785;49.500;8.288;2023-04-09T01:44:06;9.73;;;6.55;;
23232;SDS011;11785;49.500;8.288;2023-04-09T01:46:33;10.75;;;6.70;;
23232;SDS011;11785;49.500;8.288;2023-04-09T01:49:00;11.27;;;7.05;;
23232;SDS011;11785;49.500;8.288;2023-04-09T01:51:26;10.25;;;6.78;;
23232;SDS011;11785;49.500;8.288;2023-04-09T01:53:53;10.75;;;6.93;;
23232;SDS011;11785;49.500;8.288;2023-04-09T01:56:20;10.38;;;7.05;;
23232;SDS011;11785;49.500;8.288;2023-04-09T01:58:46;12.70;;;8.57;;
23232;SDS011;11785;49.500;8.288;2023-04-09T02:01:12;15.35;;;9.88;;
23232;SDS011;11785;49.500;8.288;2023-04-09T02:03:53;12.35;;;8.35;;
23232;SDS011;11785;49.500;8.288;2023-04-09T02:06:38;10.88;;;7.55;;
23232;SDS011;11785;49.500;8.288;2023-04-09T02:09:08;10.32;;;7.45;;
23232;SDS011;11785;49.500;8.288;2023-04-09T02:11:35;11.10;;;7.10;;
23232;SDS011;11785;49.500;8.288;2023-04-09T02:14:03;13.27;;;8.75;;
23232;SDS011;11785;49.500;8.288;2023-04-09T02:16:32;13.35;;;9.27;;
23232;SDS011;11785;49.500;8.288;2023-04-09T02:18:58;13.23;;;8.77;;
23232;SDS011;11785;49.500;8.288;2023-04-09T02:21:27;13.10;;;8.20;;
23232;SDS011;11785;49.500;8.288;2023-04-09T02:23:53;12.23;;;7.43;;
23232;SDS011;11785;49.500;8.288;2023-04-09T02:26:20;14.23;;;8.40;;
23232;SDS011;11785;49.500;8.288;2023-04-09T02:28:46;10.90;;;7.30;;
23232;SDS011;11785;49.500;8.288;2023-04-09T02:31:11;12.75;;;8.02;;
23232;SDS011;11785;49.500;8.288;2023-04-09T02:33:37;12.38;;;7.50;;
23232;SDS011;11785;49.500;8.288;2023-04-09T02:36:03;10.98;;;7.20;;
23232;SDS011;11785;49.500;8.288;2023-04-09T02:38:29;12.60;;;7.55;;
23232;SDS011;11785;49.500;8.288;2023-04-09T02:40:55;14.57;;;7.90;;
23232;SDS011;11785;49.500;8.288;2023-04-09T02:43:21;11.98;;;7.60;;
23232;SDS011;11785;49.500;8.288;2023-04-09T02:45:47;11.30;;;7.47;;
23232;SDS011;11785;49.500;8.288;2023-04-09T02:48:12;11.35;;;7.43;;
23232;SDS011;11785;49.500;8.288;2023-04-09T02:50:38;12.88;;;8.70;;
23232;SDS011;11785;49.500;8.288;2023-04-09T02:53:03;17.00;;;11.30;;
23232;SDS011;11785;49.500;8.288;2023-04-09T02:55:29;16.42;;;11.25;;
23232;SDS011;11785;49.500;8.288;2023-04-09T02:57:55;17.65;;;11.70;;
23232;SDS011;11785;49.500;8.288;2023-04-09T03:00:20;14.80;;;10.85;;
23232;SDS011;11785;49.500;8.288;2023-04-09T03:02:46;17.42;;;10.57;;
23232;SDS011;11785;49.500;8.288;2023-04-09T03:05:12;14.32;;;10.35;;
23232;SDS011;11785;49.500;8.288;2023-04-09T03:07:37;17.35;;;11.48;;
23232;SDS011;11785;49.500;8.288;2023-04-09T03:10:03;14.52;;;10.40;;
23232;SDS011;11785;49.500;8.288;2023-04-09T03:12:29;14.88;;;9.73;;
23232;SDS011;11785;49.500;8.288;2023-04-09T03:14:54;16.65;;;9.63;;
23232;SDS011;11785;49.500;8.288;2023-04-09T03:17:20;13.52;;;8.73;;
23232;SDS011;11785;49.500;8.288;2023-04-09T03:19:45;13.45;;;7.95;;
23232;SDS011;11785;49.500;8.288;2023-04-09T03:22:11;12.65;;;8.45;;
23232;SDS011;11785;49.500;8.288;2023-04-09T03:24:36;16.15;;;9.25;;
23232;SDS011;11785;49.500;8.288;2023-04-09T03:27:02;13.27;;;8.23;;
23232;SDS011;11785;49.500;8.288;2023-04-09T03:29:27;14.23;;;8.95;;
23232;SDS011;11785;49.500;8.288;2023-04-09T03:31:53;14.52;;;10.23;;
23232;SDS011;11785;49.500;8.288;2023-04-09T03:34:19;17.10;;;10.75;;
23232;SDS011;11785;49.500;8.288;2023-04-09T03:36:44;16.77;;;11.43;;
23232;SDS011;11785;49.500;8.288;2023-04-09T03:39:10;18.13;;;10.85;;
23232;SDS011;11785;49.500;8.288;2023-04-09T03:41:35;13.13;;;9.02;;
23232;SDS011;11785;49.500;8.288;2023-04-09T03:44:01;14.73;;;8.73;;
23232;SDS011;11785;49.500;8.288;2023-04-09T03:46:27;14.82;;;8.98;;
23232;SDS011;11785;49.500;8.288;2023-04-09T03:48:52;13.68;;;9.10;;
23232;SDS011;11785;49.500;8.288;2023-04-09T03:51:18;14.82;;;8.13;;
23232;SDS011;11785;49.500;8.288;2023-04-09T03:53:43;13.10;;;8.40;;
23232;SDS011;11785;49.500;8.288;2023-04-09T03:56:09;13.57;;;8.27;;
23232;SDS011;11785;49.500;8.288;2023-04-09T03:58:35;14.50;;;8.50;;
23232;SDS011;11785;49.500;8.288;2023-04-09T04:01:01;12.38;;;8.23;;
23232;SDS011;11785;49.500;8.288;2023-04-09T04:03:27;15.20;;;8.70;;
23232;SDS011;11785;49.500;8.288;2023-04-09T04:05:53;14.63;;;9.07;;
23232;SDS011;11785;49.500;8.288;2023-04-09T04:08:24;12.82;;;8.10;;
23232;SDS011;11785;49.500;8.288;2023-04-09T04:10:49;13.18;;;8.98;;
23232;SDS011;11785;49.500;8.288;2023-04-09T04:13:15;13.45;;;8.60;;
23232;SDS011;11785;49.500;8.288;2023-04-09T04:15:40;15.32;;;9.20;;
23232;SDS011;11785;49.500;8.288;2023-04-09T04:18:07;14.73;;;9.07;;
23232;SDS011;11785;49.500;8.288;2023-04-09T04:20:33;14.50;;;8.80;;
23232;SDS011;11785;49.500;8.288;2023-04-09T04:22:59;14.05;;;9.38;;
23232;SDS011;11785;49.500;8.288;2023-04-09T04:25:24;14.20;;;9.15;;
23232;SDS011;11785;49.500;8.288;2023-04-09T04:27:50;17.85;;;9.20;;
23232;SDS011;11785;49.500;8.288;2023-04-09T04:30:16;19.33;;;9.80;;
23232;SDS011;11785;49.500;8.288;2023-04-09T04:32:41;16.52;;;8.90;;
23232;SDS011;11785;49.500;8.288;2023-04-09T04:35:07;16.35;;;9.93;;
23232;SDS011;11785;49.500;8.288;2023-04-09T04:37:33;16.65;;;9.75;;
23232;SDS011;11785;49.500;8.288;2023-04-09T04:40:01;16.17;;;9.52;;
23232;SDS011;11785;49.500;8.288;2023-04-09T04:42:28;16.85;;;11.00;;
23232;SDS011;11785;49.500;8.288;2023-04-09T04:44:53;19.58;;;12.55;;
23232;SDS011;11785;49.500;8.288;2023-04-09T04:47:19;20.65;;;13.70;;
23232;SDS011;11785;49.500;8.288;2023-04-09T04:49:44;20.35;;;14.52;;
23232;SDS011;11785;49.500;8.288;2023-04-09T04:52:10;29.02;;;15.05;;
23232;SDS011;11785;49.500;8.288;2023-04-09T04:54:35;20.00;;;12.75;;
23232;SDS011;11785;49.500;8.288;2023-04-09T04:57:01;20.98;;;11.73;;
23232;SDS011;11785;49.500;8.288;2023-04-09T04:59:27;17.08;;;10.30;;
23232;SDS011;11785;49.500;8.288;2023-04-09T05:01:53;17.13;;;9.98;;
23232;SDS011;11785;49.500;8.288;2023-04-09T05:04:18;16.45;;;10.25;;
23232;SDS011;11785;49.500;8.288;2023-04-09T05:06:44;17.75;;;10.45;;
23232;SDS011;11785;49.500;8.288;2023-04-09T05:09:10;18.13;;;10.52;;
23232;SDS011;11785;49.500;8.288;2023-04-09T05:11:35;15.52;;;9.27;;
23232;SDS011;11785;49.500;8.288;2023-04-09T05:14:01;19.13;;;9.35;;
23232;SDS011;11785;49.500;8.288;2023-04-09T05:16:27;17.02;;;9.75;;
23232;SDS011;11785;49.500;8.288;2023-04-09T05:18:53;17.38;;;9.85;;
23232;SDS011;11785;49.500;8.288;2023-04-09T05:21:18;18.70;;;10.20;;
23232;SDS011;11785;49.500;8.288;2023-04-09T05:23:44;16.83;;;10.35;;
23232;SDS011;11785;49.500;8.288;2023-04-09T05:26:09;19.25;;;10.07;;
23232;SDS011;11785;49.500;8.288;2023-04-09T05:28:35;18.77;;;10.23;;
23232;SDS011;11785;49.500;8.288;2023-04-09T05:31:01;17.58;;;10.18;;
23232;SDS011;11785;49.500;8.288;2023-04-09T05:33:26;17.83;;;10.02;;
23232;SDS011;11785;49.500;8.288;2023-04-09T05:35:52;19.20;;;9.85;;
23232;SDS011;11785;49.500;8.288;2023-04-09T05:38:17;16.38;;;9.48;;
23232;SDS011;11785;49.500;8.288;2023-04-09T05:40:43;17.75;;;9.88;;
23232;SDS011;11785;49.500;8.288;2023-04-09T05:43:09;18.67;;;10.40;;
23232;SDS011;11785;49.500;8.288;2023-04-09T05:45:35;18.40;;;10.32;;
23232;SDS011;11785;49.500;8.288;2023-04-09T05:48:01;14.90;;;9.20;;
23232;SDS011;11785;49.500;8.288;2023-04-09T05:50:26;17.83;;;9.57;;
23232;SDS011;11785;49.500;8.288;2023-04-09T05:52:52;18.63;;;9.55;;
23232;SDS011;11785;49.500;8.288;2023-04-09T05:55:17;19.25;;;10.25;;
23232;SDS011;11785;49.500;8.288;2023-04-09T05:57:43;16.33;;;9.18;;
23232;SDS011;11785;49.500;8.288;2023-04-09T06:00:09;17.17;;;9.20;;
23232;SDS011;11785;49.500;8.288;2023-04-09T06:02:35;14.57;;;9.35;;
23232;SDS011;11785;49.500;8.288;2023-04-09T06:05:01;16.70;;;9.75;;
23232;SDS011;11785;49.500;8.288;2023-04-09T06:07:27;17.08;;;10.77;;
23232;SDS011;11785;49.500;8.288;2023-04-09T06:09:53;16.05;;;9.13;;
23232;SDS011;11785;49.500;8.288;2023-04-09T06:12:19;15.95;;;9.70;;
23232;SDS011;11785;49.500;8.288;2023-04-09T06:14:46;17.67;;;9.48;;
23232;SDS011;11785;49.500;8.288;2023-04-09T06:17:12;17.05;;;10.25;;
23232;SDS011;11785;49.500;8.288;2023-04-09T06:19:38;16.67;;;9.27;;
23232;SDS011;11785;49.500;8.288;2023-04-09T06:22:04;18.63;;;10.63;;
23232;SDS011;11785;49.500;8.288;2023-04-09T06:24:30;18.70;;;9.93;;
23232;SDS011;11785;49.500;8.288;2023-04-09T06:26:57;19.30;;;10.73;;
23232;SDS011;11785;49.500;8.288;2023-04-09T06:29:22;23.35;;;11.85;;
23232;SDS011;11785;49.500;8.288;2023-04-09T06:31:48;19.75;;;11.32;;
23232;SDS011;11785;49.500;8.288;2023-04-09T06:34:14;17.65;;;10.65;;
23232;SDS011;11785;49.500;8.288;2023-04-09T06:36:39;21.20;;;11.57;;
23232;SDS011;11785;49.500;8.288;2023-04-09T06:39:07;19.98;;;12.13;;
23232;SDS011;11785;49.500;8.288;2023-04-09T06:41:33;19.13;;;11.13;;
23232;SDS011;11785;49.500;8.288;2023-04-09T06:43:58;19.42;;;11.23;;
23232;SDS011;11785;49.500;8.288;2023-04-09T06:46:24;19.52;;;11.48;;
23232;SDS011;11785;49.500;8.288;2023-04-09T06:48:50;21.95;;;12.15;;
23232;SDS011;11785;49.500;8.288;2023-04-09T06:51:15;21.52;;;11.70;;
23232;SDS011;11785;49.500;8.288;2023-04-09T06:53:41;19.40;;;11.25;;
23232;SDS011;11785;49.500;8.288;2023-04-09T06:56:07;21.55;;;11.18;;
23232;SDS011;11785;49.500;8.288;2023-04-09T06:58:32;20.40;;;11.50;;
23232;SDS011;11785;49.500;8.288;2023-04-09T07:00:58;21.25;;;11.55;;
23232;SDS011;11785;49.500;8.288;2023-04-09T07:03:24;20.88;;;12.15;;
23232;SDS011;11785;49.500;8.288;2023-04-09T07:05:52;21.42;;;11.68;;
23232;SDS011;11785;49.500;8.288;2023-04-09T07:08:18;19.70;;;11.45;;
23232;SDS011;11785;49.500;8.288;2023-04-09T07:10:44;20.92;;;12.32;;
23232;SDS011;11785;49.500;8.288;2023-04-09T07:13:11;20.98;;;12.38;;
23232;SDS011;11785;49.500;8.288;2023-04-09T07:15:37;22.08;;;13.13;;
23232;SDS011;11785;49.500;8.288;2023-04-09T07:18:02;20.00;;;12.25;;
23232;SDS011;11785;49.500;8.288;2023-04-09T07:20:28;21.73;;;12.35;;
23232;SDS011;11785;49.500;8.288;2023-04-09T07:22:54;23.55;;;13.40;;
23232;SDS011;11785;49.500;8.288;2023-04-09T07:25:19;25.00;;;13.27;;
23232;SDS011;11785;49.500;8.288;2023-04-09T07:27:45;21.55;;;12.70;;
23232;SDS011;11785;49.500;8.288;2023-04-09T07:30:11;23.23;;;13.13;;
23232;SDS011;11785;49.500;8.288;2023-04-09T07:32:36;24.02;;;13.25;;
23232;SDS011;11785;49.500;8.288;2023-04-09T07:35:03;23.42;;;13.52;;
23232;SDS011;11785;49.500;8.288;2023-04-09T07:37:31;22.92;;;13.40;;
23232;SDS011;11785;49.500;8.288;2023-04-09T07:39:56;22.20;;;12.90;;
23232;SDS011;11785;49.500;8.288;2023-04-09T07:42:22;23.40;;;13.57;;
23232;SDS011;11785;49.500;8.288;2023-04-09T07:44:48;23.13;;;12.75;;
23232;SDS011;11785;49.500;8.288;2023-04-09T07:47:13;23.60;;;12.48;;
23232;SDS011;11785;49.500;8.288;2023-04-09T07:49:39;26.08;;;14.63;;
23232;SDS011;11785;49.500;8.288;2023-04-09T07:52:05;24.58;;;14.15;;
23232;SDS011;11785;49.500;8.288;2023-04-09T07:54:31;21.63;;;14.40;;
23232;SDS011;11785;49.500;8.288;2023-04-09T07:56:57;24.60;;;13.57;;
23232;SDS011;11785;49.500;8.288;2023-04-09T07:59:23;21.75;;;13.60;;
23232;SDS011;11785;49.500;8.288;2023-04-09T08:01:49;25.27;;;15.35;;
23232;SDS011;11785;49.500;8.288;2023-04-09T08:04:14;23.30;;;13.50;;
23232;SDS011;11785;49.500;8.288;2023-04-09T08:06:40;23.73;;;14.80;;
23232;SDS011;11785;49.500;8.288;2023-04-09T08:09:06;24.08;;;14.25;;
23232;SDS011;11785;49.500;8.288;2023-04-09T08:11:31;23.88;;;14.55;;
23232;SDS011;11785;49.500;8.288;2023-04-09T08:13:57;24.25;;;15.02;;
23232;SDS011;11785;49.500;8.288;2023-04-09T08:16:26;23.23;;;14.35;;
23232;SDS011;11785;49.500;8.288;2023-04-09T08:18:54;23.02;;;14.25;;
23232;SDS011;11785;49.500;8.288;2023-04-09T08:21:20;22.92;;;13.65;;
23232;SDS011;11785;49.500;8.288;2023-04-09T08:23:45;22.88;;;13.88;;
23232;SDS011;11785;49.500;8.288;2023-04-09T08:26:12;24.40;;;13.80;;
23232;SDS011;11785;49.500;8.288;2023-04-09T08:28:38;23.15;;;14.55;;
23232;SDS011;11785;49.500;8.288;2023-04-09T08:31:03;25.38;;;14.05;;
23232;SDS011;11785;49.500;8.288;2023-04-09T08:33:29;24.40;;;13.70;;
23232;SDS011;11785;49.500;8.288;2023-04-09T08:35:55;24.23;;;14.05;;
23232;SDS011;11785;49.500;8.288;2023-04-09T08:38:21;24.92;;;13.57;;
23232;SDS011;11785;49.500;8.288;2023-04-09T08:40:46;25.15;;;13.82;;
23232;SDS011;11785;49.500;8.288;2023-04-09T08:43:13;23.02;;;13.43;;
23232;SDS011;11785;49.500;8.288;2023-04-09T08:45:40;22.65;;;13.07;;
23232;SDS011;11785;49.500;8.288;2023-04-09T08:48:07;24.05;;;13.68;;
23232;SDS011;11785;49.500;8.288;2023-04-09T08:50:34;23.90;;;13.68;;
23232;SDS011;11785;49.500;8.288;2023-04-09T08:53:06;23.35;;;13.45;;
23232;SDS011;11785;49.500;8.288;2023-04-09T08:55:33;19.80;;;12.60;;
23232;SDS011;11785;49.500;8.288;2023-04-09T08:57:59;20.25;;;12.88;;
23232;SDS011;11785;49.500;8.288;2023-04-09T09:00:28;20.20;;;13.10;;
23232;SDS011;11785;49.500;8.288;2023-04-09T09:03:00;19.50;;;12.40;;
23232;SDS011;11785;49.500;8.288;2023-04-09T09:05:37;21.67;;;13.30;;
23232;SDS011;11785;49.500;8.288;2023-04-09T09:08:08;20.50;;;12.77;;
23232;SDS011;11785;49.500;8.288;2023-04-09T09:10:42;21.90;;;13.00;;
23232;SDS011;11785;49.500;8.288;2023-04-09T09:13:21;19.38;;;12.63;;
23232;SDS011;11785;49.500;8.288;2023-04-09T09:15:48;18.73;;;11.73;;
23232;SDS011;11785;49.500;8.288;2023-04-09T09:18:18;19.05;;;11.13;;
23232;SDS011;11785;49.500;8.288;2023-04-09T09:20:45;17.27;;;11.95;;
23232;SDS011;11785;49.500;8.288;2023-04-09T09:23:10;21.27;;;12.18;;
23232;SDS011;11785;49.500;8.288;2023-04-09T09:25:36;18.95;;;12.35;;
23232;SDS011;11785;49.500;8.288;2023-04-09T09:28:06;19.17;;;12.48;;
23232;SDS011;11785;49.500;8.288;2023-04-09T09:30:36;19.67;;;13.13;;
23232;SDS011;11785;49.500;8.288;2023-04-09T09:33:09;22.00;;;13.48;;
23232;SDS011;11785;49.500;8.288;2023-04-09T09:35:47;19.90;;;13.00;;
23232;SDS011;11785;49.500;8.288;2023-04-09T09:38:18;20.90;;;13.10;;
23232;SDS011;11785;49.500;8.288;2023-04-09T09:40:44;20.15;;;12.77;;
23232;SDS011;11785;49.500;8.288;2023-04-09T09:43:11;19.45;;;13.43;;
23232;SDS011;11785;49.500;8.288;2023-04-09T09:45:38;24.73;;;13.35;;
23232;SDS011;11785;49.500;8.288;2023-04-09T09:48:04;19.48;;;13.35;;
23232;SDS011;11785;49.500;8.288;2023-04-09T09:50:30;19.13;;;13.02;;
23232;SDS011;11785;49.500;8.288;2023-04-09T09:53:05;20.00;;;13.98;;
23232;SDS011;11785;49.500;8.288;2023-04-09T09:55:32;21.73;;;14.70;;
23232;SDS011;11785;49.500;8.288;2023-04-09T09:58:03;21.88;;;15.35;;
23232;SDS011;11785;49.500;8.288;2023-04-09T10:00:50;22.95;;;14.07;;
23232;SDS011;11785;49.500;8.288;2023-04-09T10:03:21;20.98;;;13.55;;
23232;SDS011;11785;49.500;8.288;2023-04-09T10:05:50;23.63;;;15.38;;
23232;SDS011;11785;49.500;8.288;2023-04-09T10:08:17;24.55;;;16.20;;
23232;SDS011;11785;49.500;8.288;2023-04-09T10:10:45;22.67;;;15.45;;
23232;SDS011;11785;49.500;8.288;2023-04-09T10:13:13;27.05;;;16.38;;
23232;SDS011;11785;49.500;8.288;2023-04-09T10:15:45;23.05;;;15.10;;
23232;SDS011;11785;49.500;8.288;2023-04-09T10:18:11;22.13;;;15.80;;
23232;SDS011;11785;49.500;8.288;2023-04-09T10:20:50;22.17;;;14.93;;
23232;SDS011;11785;49.500;8.288;2023-04-09T10:23:23;18.60;;;12.48;;
23232;SDS011;11785;49.500;8.288;2023-04-09T10:25:56;18.08;;;11.27;;
23232;SDS011;11785;49.500;8.288;2023-04-09T10:28:22;13.50;;;9.88;;
23232;SDS011;11785;49.500;8.288;2023-04-09T10:30:48;16.67;;;11.13;;
23232;SDS011;11785;49.500;8.288;2023-04-09T10:33:14;12.95;;;9.80;;
23232;SDS011;11785;49.500;8.288;2023-04-09T10:35:45;15.13;;;10.80;;
23232;SDS011;11785;49.500;8.288;2023-04-09T10:38:13;11.68;;;8.43;;
23232;SDS011;11785;49.500;8.288;2023-04-09T10:40:40;15.07;;;11.13;;
23232;SDS011;11785;49.500;8.288;2023-04-09T10:43:11;15.80;;;10.10;;
23232;SDS011;11785;49.500;8.288;2023-04-09T10:45:38;13.75;;;9.23;;
23232;SDS011;11785;49.500;8.288;2023-04-09T10:48:05;12.63;;;9.70;;
23232;SDS011;11785;49.500;8.288;2023-04-09T10:50:38;10.90;;;9.07;;
23232;SDS011;11785;49.500;8.288;2023-04-09T10:53:19;14.80;;;10.45;;
23232;SDS011;11785;49.500;8.288;2023-04-09T10:55:50;13.13;;;9.13;;
23232;SDS011;11785;49.500;8.288;2023-04-09T10:58:19;12.30;;;8.68;;
23232;SDS011;11785;49.500;8.288;2023-04-09T11:00:45;16.35;;;10.60;;
23232;SDS011;11785;49.500;8.288;2023-04-09T11:03:22;16.23;;;11.10;;
23232;SDS011;11785;49.500;8.288;2023-04-09T11:05:51;13.10;;;9.05;;
23232;SDS011;11785;49.500;8.288;2023-04-09T11:08:29;14.02;;;9.82;;
23232;SDS011;11785;49.500;8.288;2023-04-09T11:10:56;12.80;;;8.30;;
23232;SDS011;11785;49.500;8.288;2023-04-09T11:13:24;9.15;;;6.65;;
23232;SDS011;11785;49.500;8.288;2023-04-09T11:15:50;8.85;;;6.90;;
23232;SDS011;11785;49.500;8.288;2023-04-09T11:18:20;11.27;;;8.20;;
23232;SDS011;11785;49.500;8.288;2023-04-09T11:20:56;9.18;;;6.75;;
23232;SDS011;11785;49.500;8.288;2023-04-09T11:23:26;8.75;;;6.22;;
23232;SDS011;11785;49.500;8.288;2023-04-09T11:25:52;8.05;;;5.43;;
23232;SDS011;11785;49.500;8.288;2023-04-09T11:28:19;9.52;;;6.20;;
23232;SDS011;11785;49.500;8.288;2023-04-09T11:30:45;7.32;;;5.55;;
23232;SDS011;11785;49.500;8.288;2023-04-09T11:33:11;5.95;;;5.03;;
23232;SDS011;11785;49.500;8.288;2023-04-09T11:35:37;7.93;;;5.88;;
23232;SDS011;11785;49.500;8.288;2023-04-09T11:38:09;6.82;;;5.47;;
23232;SDS011;11785;49.500;8.288;2023-04-09T11:40:36;8.23;;;6.07;;
23232;SDS011;11785;49.500;8.288;2023-04-09T11:43:11;7.40;;;5.63;;
23232;SDS011;11785;49.500;8.288;2023-04-09T11:45:37;8.45;;;6.43;;
23232;SDS011;11785;49.500;8.288;2023-04-09T11:48:03;6.88;;;5.70;;
23232;SDS011;11785;49.500;8.288;2023-04-09T11:50:29;7.05;;;5.47;;
23232;SDS011;11785;49.500;8.288;2023-04-09T11:52:56;8.38;;;6.13;;
23232;SDS011;11785;49.500;8.288;2023-04-09T11:55:25;6.60;;;5.00;;
23232;SDS011;11785;49.500;8.288;2023-04-09T11:57:53;7.68;;;6.07;;
23232;SDS011;11785;49.500;8.288;2023-04-09T12:00:22;8.13;;;6.50;;
23232;SDS011;11785;49.500;8.288;2023-04-09T12:02:49;7.20;;;5.90;;
23232;SDS011;11785;49.500;8.288;2023-04-09T12:07:49;6.47;;;5.32;;
23232;SDS011;11785;49.500;8.288;2023-04-09T12:10:15;7.78;;;6.00;;
23232;SDS011;11785;49.500;8.288;2023-04-09T12:12:42;7.40;;;5.97;;
23232;SDS011;11785;49.500;8.288;2023-04-09T12:15:18;6.32;;;5.50;;
23232;SDS011;11785;49.500;8.288;2023-04-09T12:17:47;7.43;;;5.55;;
23232;SDS011;11785;49.500;8.288;2023-04-09T12:20:13;7.45;;;6.38;;
23232;SDS011;11785;49.500;8.288;2023-04-09T12:22:49;12.38;;;7.78;;
23232;SDS011;11785;49.500;8.288;2023-04-09T12:25:15;9.18;;;6.72;;
23232;SDS011;11785;49.500;8.288;2023-04-09T12:27:40;7.55;;;5.78;;
23232;SDS011;11785;49.500;8.288;2023-04-09T12:30:06;6.88;;;5.63;;
23232;SDS011;11785;49.500;8.288;2023-04-09T12:32:32;8.38;;;6.22;;
23232;SDS011;11785;49.500;8.288;2023-04-09T12:34:57;8.30;;;6.20;;
23232;SDS011;11785;49.500;8.288;2023-04-09T12:37:23;8.30;;;6.47;;
23232;SDS011;11785;49.500;8.288;2023-04-09T12:39:49;7.90;;;6.32;;
23232;SDS011;11785;49.500;8.288;2023-04-09T12:42:14;6.80;;;5.32;;
23232;SDS011;11785;49.500;8.288;2023-04-09T12:44:40;6.63;;;5.65;;
23232;SDS011;11785;49.500;8.288;2023-04-09T12:47:05;10.35;;;7.72;;
23232;SDS011;11785;49.500;8.288;2023-04-09T12:49:31;8.25;;;6.25;;
23232;SDS011;11785;49.500;8.288;2023-04-09T12:51:57;6.80;;;5.30;;
23232;SDS011;11785;49.500;8.288;2023-04-09T12:54:22;7.03;;;5.65;;
23232;SDS011;11785;49.500;8.288;2023-04-09T12:56:48;7.68;;;5.50;;
23232;SDS011;11785;49.500;8.288;2023-04-09T12:59:14;6.65;;;5.13;;
23232;SDS011;11785;49.500;8.288;2023-04-09T13:01:39;7.68;;;5.63;;
23232;SDS011;11785;49.500;8.288;2023-04-09T13:04:05;7.18;;;5.57;;
23232;SDS011;11785;49.500;8.288;2023-04-09T13:06:30;6.40;;;5.15;;
23232;SDS011;11785;49.500;8.288;2023-04-09T13:08:56;7.97;;;5.65;;
23232;SDS011;11785;49.500;8.288;2023-04-09T13:11:22;7.63;;;5.07;;
23232;SDS011;11785;49.500;8.288;2023-04-09T13:13:47;7.55;;;6.28;;
23232;SDS011;11785;49.500;8.288;2023-04-09T13:16:13;6.35;;;5.03;;
23232;SDS011;11785;49.500;8.288;2023-04-09T13:18:38;4.57;;;3.75;;
23232;SDS011;11785;49.500;8.288;2023-04-09T13:21:04;4.30;;;3.85;;
23232;SDS011;11785;49.500;8.288;2023-04-09T13:23:30;4.53;;;4.13;;
23232;SDS011;11785;49.500;8.288;2023-04-09T13:25:55;4.07;;;3.67;;
23232;SDS011;11785;49.500;8.288;2023-04-09T13:28:21;3.85;;;3.47;;
23232;SDS011;11785;49.500;8.288;2023-04-09T13:30:46;7.22;;;4.05;;
23232;SDS011;11785;49.500;8.288;2023-04-09T13:33:12;4.15;;;3.75;;
23232;SDS011;11785;49.500;8.288;2023-04-09T13:35:37;4.63;;;4.13;;
23232;SDS011;11785;49.500;8.288;2023-04-09T13:38:03;4.97;;;4.47;;
23232;SDS011;11785;49.500;8.288;2023-04-09T13:40:28;4.50;;;4.00;;
23232;SDS011;11785;49.500;8.288;2023-04-09T13:42:54;4.75;;;4.22;;
23232;SDS011;11785;49.500;8.288;2023-04-09T13:45:20;6.53;;;5.85;;
23232;SDS011;11785;49.500;8.288;2023-04-09T13:47:47;5.05;;;4.55;;
23232;SDS011;11785;49.500;8.288;2023-04-09T13:50:13;4.15;;;3.75;;
23232;SDS011;11785;49.500;8.288;2023-04-09T13:52:39;4.93;;;3.38;;
23232;SDS011;11785;49.500;8.288;2023-04-09T13:55:05;4.55;;;3.90;;
23232;SDS011;11785;49.500;8.288;2023-04-09T13:57:31;4.43;;;4.03;;
23232;SDS011;11785;49.500;8.288;2023-04-09T13:59:57;4.15;;;3.75;;
23232;SDS011;11785;49.500;8.288;2023-04-09T14:02:25;4.63;;;4.13;;
23232;SDS011;11785;49.500;8.288;2023-04-09T14:04:52;4.65;;;4.03;;
23232;SDS011;11785;49.500;8.288;2023-04-09T14:07:18;3.97;;;3.58;;
23232;SDS011;11785;49.500;8.288;2023-04-09T14:09:43;3.85;;;3.55;;
23232;SDS011;11785;49.500;8.288;2023-04-09T14:12:09;5.10;;;4.32;;
23232;SDS011;11785;49.500;8.288;2023-04-09T14:14:34;4.70;;;4.22;;
23232;SDS011;11785;49.500;8.288;2023-04-09T14:17:00;4.10;;;3.70;;
23232;SDS011;11785;49.500;8.288;2023-04-09T14:19:26;3.30;;;3.00;;
23232;SDS011;11785;49.500;8.288;2023-04-09T14:21:51;5.63;;;3.88;;
23232;SDS011;11785;49.500;8.288;2023-04-09T14:24:19;3.75;;;3.45;;
23232;SDS011;11785;49.500;8.288;2023-04-09T14:26:47;3.70;;;3.30;;
23232;SDS011;11785;49.500;8.288;2023-04-09T14:29:13;4.93;;;4.07;;
23232;SDS011;11785;49.500;8.288;2023-04-09T14:31:38;3.58;;;3.28;;
23232;SDS011;11785;49.500;8.288;2023-04-09T14:34:06;3.88;;;3.35;;
23232;SDS011;11785;49.500;8.288;2023-04-09T14:36:32;3.38;;;3.08;;
23232;SDS011;11785;49.500;8.288;2023-04-09T14:38:57;4.80;;;3.83;;
23232;SDS011;11785;49.500;8.288;2023-04-09T14:41:23;3.25;;;2.95;;
23232;SDS011;11785;49.500;8.288;2023-04-09T14:43:50;3.28;;;2.97;;
23232;SDS011;11785;49.500;8.288;2023-04-09T14:46:15;4.03;;;2.65;;